createdAt,value
2024-01-07T00:00:03.990Z,0.00
2024-01-07T00:01:04.157Z,0.00
2024-01-07T00:02:03.997Z,0.00
2024-01-07T00:03:03.980Z,0.00
2024-01-07T00:04:03.977Z,0.00
2024-01-07T00:05:03.998Z,0.00
2024-01-07T00:06:03.940Z,0.00
2024-01-07T00:07:03.992Z,0.00
2024-01-07T00:08:03.900Z,0.00
2024-01-07T00:09:03.904Z,0.00
2024-01-07T00:10:03.930Z,0.00
2024-01-07T00:11:03.890Z,0.00
2024-01-07T00:12:03.835Z,0.00
2024-01-07T00:13:03.949Z,0.00
2024-01-07T00:14:03.799Z,0.00
2024-01-07T00:15:03.841Z,0.00
2024-01-07T00:16:03.827Z,0.00
2024-01-07T00:17:03.780Z,0.00
2024-01-07T00:18:03.828Z,0.00
2024-01-07T00:19:03.902Z,0.00
2024-01-07T00:20:03.747Z,0.00
2024-01-07T00:21:03.753Z,0.00
2024-01-07T00:22:03.732Z,0.00
2024-01-07T00:23:03.709Z,0.00
2024-01-07T00:24:03.685Z,0.00
2024-01-07T00:25:03.734Z,0.00
2024-01-07T00:26:03.651Z,0.00
2024-01-07T00:27:03.642Z,0.00
2024-01-07T00:28:03.782Z,0.00
2024-01-07T00:29:03.655Z,0.00
2024-01-07T00:30:03.683Z,0.00
2024-01-07T00:31:03.738Z,0.00
2024-01-07T00:32:03.563Z,0.00
2024-01-07T00:33:03.606Z,0.00
2024-01-07T00:34:03.622Z,0.00
2024-01-07T00:35:03.661Z,0.00
2024-01-07T00:36:03.527Z,0.00
2024-01-07T00:37:03.592Z,0.00
2024-01-07T00:38:03.505Z,0.00
2024-01-07T00:39:03.484Z,0.00
2024-01-07T00:40:03.592Z,0.00
2024-01-07T00:41:03.523Z,0.00
2024-01-07T00:42:03.447Z,0.00
2024-01-07T00:43:03.586Z,0.00
2024-01-07T00:44:03.435Z,0.00
2024-01-07T00:45:03.395Z,0.00
2024-01-07T00:46:03.444Z,0.00
2024-01-07T00:47:03.390Z,0.00
2024-01-07T00:48:03.504Z,0.00
2024-01-07T00:49:03.513Z,0.00
2024-01-07T00:50:03.344Z,0.00
2024-01-07T00:51:03.396Z,0.00
2024-01-07T00:52:03.372Z,0.00
2024-01-07T00:53:03.297Z,0.00
2024-01-07T00:54:03.308Z,0.00
2024-01-07T00:55:03.348Z,0.00
2024-01-07T00:56:03.248Z,0.00
2024-01-07T00:57:03.545Z,0.00
2024-01-07T00:58:03.332Z,0.00
2024-01-07T00:59:03.218Z,0.00
2024-01-07T01:00:03.206Z,0.00
2024-01-07T01:01:03.315Z,0.00
2024-01-07T01:02:03.218Z,0.00
2024-01-07T01:03:03.175Z,0.00
2024-01-07T01:04:03.217Z,0.00
2024-01-07T01:05:03.249Z,0.00
2024-01-07T01:06:03.154Z,0.00
2024-01-07T01:07:03.172Z,0.00
2024-01-07T01:08:03.097Z,0.00
2024-01-07T01:09:03.100Z,0.00
2024-01-07T01:10:03.188Z,0.00
2024-01-07T01:11:03.113Z,0.00
2024-01-07T01:12:03.090Z,0.00
2024-01-07T01:13:03.100Z,0.00
2024-01-07T01:14:03.021Z,0.00
2024-01-07T01:15:03.018Z,0.00
2024-01-07T01:16:03.018Z,0.00
2024-01-07T01:17:03.006Z,0.00
2024-01-07T01:18:03.099Z,0.00
2024-01-07T01:19:03.141Z,0.00
2024-01-07T01:20:02.948Z,0.00
2024-01-07T01:21:02.951Z,0.00
2024-01-07T01:22:03.079Z,0.00
2024-01-07T01:23:02.919Z,0.00
2024-01-07T01:24:02.944Z,0.00
2024-01-07T01:25:02.957Z,0.00
2024-01-07T01:26:02.893Z,0.00
2024-01-07T01:27:02.912Z,0.00
2024-01-07T01:28:02.957Z,0.00
2024-01-07T01:29:02.904Z,0.00
2024-01-07T01:30:02.797Z,0.00
2024-01-07T01:31:02.858Z,0.00
2024-01-07T01:32:02.823Z,0.00
2024-01-07T01:33:02.877Z,0.00
2024-01-07T01:34:02.913Z,0.00
2024-01-07T01:35:02.807Z,0.00
2024-01-07T01:36:02.732Z,0.00
2024-01-07T01:37:02.763Z,0.00
2024-01-07T01:38:02.720Z,0.00
2024-01-07T01:39:02.727Z,0.00
2024-01-07T01:40:02.742Z,0.00
2024-01-07T01:41:02.663Z,0.00
2024-01-07T01:42:02.660Z,0.00
2024-01-07T01:43:02.780Z,0.00
2024-01-07T01:44:02.639Z,0.00
2024-01-07T01:45:02.781Z,0.00
2024-01-07T01:46:02.703Z,0.00
2024-01-07T01:47:02.603Z,0.00
2024-01-07T01:48:02.729Z,0.00
2024-01-07T01:49:02.641Z,0.00
2024-01-07T01:50:02.578Z,0.00
2024-01-07T01:51:02.536Z,0.00
2024-01-07T01:52:02.587Z,0.00
2024-01-07T01:53:02.527Z,0.00
2024-01-07T01:54:02.483Z,0.00
2024-01-07T01:55:02.645Z,0.00
2024-01-07T01:56:02.461Z,0.00
2024-01-07T01:57:02.476Z,0.00
2024-01-07T01:58:02.553Z,0.00
2024-01-07T01:59:02.430Z,0.00
2024-01-07T02:00:02.417Z,0.00
2024-01-07T02:01:02.514Z,0.00
2024-01-07T02:02:02.478Z,0.00
2024-01-07T02:03:02.373Z,0.00
2024-01-07T02:04:02.398Z,0.00
2024-01-07T02:05:02.411Z,0.00
2024-01-07T02:06:02.342Z,0.00
2024-01-07T02:07:02.396Z,0.00
2024-01-07T02:08:02.296Z,0.00
2024-01-07T02:09:02.282Z,0.00
2024-01-07T02:10:02.427Z,0.00
2024-01-07T02:11:02.274Z,0.00
2024-01-07T02:12:02.250Z,0.00
2024-01-07T02:13:02.299Z,0.00
2024-01-07T02:14:02.250Z,0.00
2024-01-07T02:15:02.250Z,0.00
2024-01-07T02:16:02.318Z,0.00
2024-01-07T02:17:02.198Z,0.00
2024-01-07T02:18:02.239Z,0.00
2024-01-07T02:19:02.209Z,0.00
2024-01-07T02:20:02.275Z,0.00
2024-01-07T02:21:02.140Z,0.00
2024-01-07T02:22:02.195Z,0.00
2024-01-07T02:23:02.094Z,0.00
2024-01-07T02:24:02.094Z,0.00
2024-01-07T02:25:02.179Z,0.00
2024-01-07T02:26:02.089Z,0.00
2024-01-07T02:27:02.056Z,0.00
2024-01-07T02:28:02.100Z,0.00
2024-01-07T02:29:02.034Z,0.00
2024-01-07T02:30:02.039Z,0.00
2024-01-07T02:31:02.116Z,0.00
2024-01-07T02:32:01.988Z,0.00
2024-01-07T02:33:02.018Z,0.00
2024-01-07T02:34:02.036Z,0.00
2024-01-07T02:35:01.949Z,0.00
2024-01-07T02:36:01.952Z,0.00
2024-01-07T02:37:02.014Z,0.00
2024-01-07T02:38:01.909Z,0.00
2024-01-07T02:39:01.923Z,0.00
2024-01-07T02:40:02.358Z,0.00
2024-01-07T02:41:01.877Z,0.00
2024-01-07T02:42:01.856Z,0.00
2024-01-07T02:43:01.876Z,0.00
2024-01-07T02:44:01.845Z,0.00
2024-01-07T02:45:01.823Z,0.00
2024-01-07T02:46:01.885Z,0.00
2024-01-07T02:47:01.785Z,0.00
2024-01-07T02:48:01.820Z,0.00
2024-01-07T02:49:02.251Z,0.00
2024-01-07T02:50:01.771Z,0.00
2024-01-07T02:51:01.758Z,0.00
2024-01-07T02:52:01.759Z,0.00
2024-01-07T02:53:01.804Z,0.00
2024-01-07T02:54:01.696Z,0.00
2024-01-07T02:55:01.675Z,0.00
2024-01-07T02:56:01.693Z,0.00
2024-01-07T02:57:01.855Z,0.00
2024-01-07T02:58:01.747Z,0.00
2024-01-07T02:59:01.644Z,0.00
2024-01-07T03:00:01.679Z,0.00
2024-01-07T03:01:01.708Z,0.00
2024-01-07T03:02:01.692Z,0.00
2024-01-07T03:03:01.623Z,0.00
2024-01-07T03:04:01.623Z,0.00
2024-01-07T03:05:01.701Z,0.00
2024-01-07T03:06:01.588Z,0.00
2024-01-07T03:07:01.559Z,0.00
2024-01-07T03:08:01.585Z,0.00
2024-01-07T03:09:01.598Z,0.00
2024-01-07T03:10:01.517Z,0.00
2024-01-07T03:11:01.498Z,0.00
2024-01-07T03:12:01.490Z,0.00
2024-01-07T03:13:01.523Z,0.00
2024-01-07T03:14:01.443Z,0.00
2024-01-07T03:15:01.425Z,0.00
2024-01-07T03:16:01.448Z,0.00
2024-01-07T03:17:01.415Z,0.00
2024-01-07T03:18:01.436Z,0.00
2024-01-07T03:19:01.391Z,0.00
2024-01-07T03:20:01.355Z,0.00
2024-01-07T03:21:01.440Z,0.00
2024-01-07T03:22:01.403Z,0.00
2024-01-07T03:23:01.321Z,0.00
2024-01-07T03:24:01.321Z,0.00
2024-01-07T03:25:01.343Z,0.00
2024-01-07T03:26:01.312Z,0.00
2024-01-07T03:27:01.271Z,0.00
2024-01-07T03:28:01.270Z,0.00
2024-01-07T03:29:01.235Z,0.00
2024-01-07T03:30:01.263Z,0.00
2024-01-07T03:31:01.314Z,0.00
2024-01-07T03:32:01.214Z,0.00
2024-01-07T03:33:01.260Z,0.00
2024-01-07T03:34:01.545Z,0.00
2024-01-07T03:35:01.232Z,0.00
2024-01-07T03:36:01.152Z,0.00
2024-01-07T03:37:01.188Z,0.00
2024-01-07T03:38:01.137Z,0.00
2024-01-07T03:39:01.139Z,0.00
2024-01-07T03:40:01.138Z,0.00
2024-01-07T03:41:01.088Z,0.00
2024-01-07T03:42:01.092Z,0.00
2024-01-07T03:43:01.078Z,0.00
2024-01-07T03:44:01.121Z,0.00
2024-01-07T03:45:01.033Z,0.00
2024-01-07T03:46:01.101Z,0.00
2024-01-07T03:47:01.038Z,0.00
2024-01-07T03:48:01.110Z,0.00
2024-01-07T03:49:01.168Z,0.00
2024-01-07T03:50:00.987Z,0.00
2024-01-07T03:51:00.958Z,0.00
2024-01-07T03:52:00.992Z,0.00
2024-01-07T03:53:00.960Z,0.00
2024-01-07T03:54:00.924Z,0.00
2024-01-07T03:55:00.973Z,0.00
2024-01-07T03:56:00.896Z,0.00
2024-01-07T03:57:00.878Z,0.00
2024-01-07T03:58:00.908Z,0.00
2024-01-07T03:59:00.851Z,0.00
2024-01-07T04:00:00.867Z,0.00
2024-01-07T04:01:00.957Z,0.00
2024-01-07T04:02:00.915Z,0.00
2024-01-07T04:03:00.848Z,0.00
2024-01-07T04:04:00.875Z,0.00
2024-01-07T04:05:00.781Z,0.00
2024-01-07T04:06:00.825Z,0.00
2024-01-07T04:07:00.829Z,0.00
2024-01-07T04:08:00.735Z,0.00
2024-01-07T04:09:00.726Z,0.00
2024-01-07T04:10:00.785Z,0.00
2024-01-07T04:11:00.709Z,0.00
2024-01-07T04:12:00.699Z,0.00
2024-01-07T04:13:00.730Z,0.00
2024-01-07T04:14:00.666Z,0.00
2024-01-07T04:15:00.630Z,0.00
2024-01-07T04:16:00.690Z,0.00
2024-01-07T04:17:00.640Z,0.00
2024-01-07T04:18:00.635Z,0.00
2024-01-07T04:19:00.644Z,0.00
2024-01-07T04:20:00.683Z,0.00
2024-01-07T04:21:00.563Z,0.00
2024-01-07T04:22:00.604Z,0.00
2024-01-07T04:23:00.540Z,0.00
2024-01-07T04:24:00.517Z,0.00
2024-01-07T04:25:00.885Z,0.00
2024-01-07T04:26:00.523Z,0.00
2024-01-07T04:27:00.485Z,0.00
2024-01-07T04:28:00.500Z,0.00
2024-01-07T04:29:00.476Z,0.00
2024-01-07T04:30:00.457Z,0.00
2024-01-07T04:31:00.478Z,0.00
2024-01-07T04:32:00.419Z,0.00
2024-01-07T04:33:00.419Z,0.00
2024-01-07T04:34:00.464Z,0.00
2024-01-07T04:35:00.532Z,0.00
2024-01-07T04:36:00.365Z,0.00
2024-01-07T04:37:00.405Z,0.00
2024-01-07T04:38:00.361Z,0.00
2024-01-07T04:39:00.320Z,0.00
2024-01-07T04:40:00.404Z,0.00
2024-01-07T04:41:00.288Z,0.00
2024-01-07T04:42:00.281Z,0.00
2024-01-07T04:43:00.335Z,0.00
2024-01-07T04:44:00.262Z,0.00
2024-01-07T04:45:00.301Z,0.00
2024-01-07T04:46:00.300Z,0.00
2024-01-07T04:47:00.211Z,0.00
2024-01-07T04:48:00.324Z,0.00
2024-01-07T04:49:00.346Z,0.00
2024-01-07T04:50:00.318Z,0.00
2024-01-07T04:51:00.164Z,0.00
2024-01-07T04:52:00.228Z,0.00
2024-01-07T04:53:00.158Z,0.00
2024-01-07T04:54:00.161Z,0.00
2024-01-07T04:55:00.266Z,0.00
2024-01-07T04:56:00.132Z,0.00
2024-01-07T04:57:00.080Z,0.00
2024-01-07T04:58:00.098Z,0.00
2024-01-07T04:59:00.055Z,0.00
2024-01-07T05:00:00.047Z,0.00
2024-01-07T05:01:00.112Z,0.00
2024-01-07T05:02:00.032Z,0.00
2024-01-07T05:03:00.051Z,0.00
2024-01-07T05:04:00.211Z,0.00
2024-01-07T05:04:59.965Z,0.00
2024-01-07T05:05:59.993Z,0.00
2024-01-07T05:07:00.042Z,0.00
2024-01-07T05:07:59.959Z,0.00
2024-01-07T05:08:59.920Z,0.00
2024-01-07T05:09:59.958Z,0.00
2024-01-07T05:10:59.897Z,0.00
2024-01-07T05:11:59.907Z,0.00
2024-01-07T05:12:59.906Z,0.00
2024-01-07T05:13:59.852Z,0.00
2024-01-07T05:14:59.842Z,0.00
2024-01-07T05:15:59.850Z,0.00
2024-01-07T05:16:59.831Z,0.00
2024-01-07T05:17:59.849Z,0.00
2024-01-07T05:18:59.894Z,0.00
2024-01-07T05:20:00.025Z,0.00
2024-01-07T05:20:59.771Z,0.00
2024-01-07T05:21:59.808Z,0.00
2024-01-07T05:22:59.737Z,0.00
2024-01-07T05:23:59.720Z,0.00
2024-01-07T05:24:59.772Z,0.00
2024-01-07T05:25:59.721Z,0.00
2024-01-07T05:26:59.685Z,0.00
2024-01-07T05:27:59.669Z,0.00
2024-01-07T05:28:59.669Z,0.00
2024-01-07T05:29:59.675Z,0.00
2024-01-07T05:30:59.743Z,0.00
2024-01-07T05:31:59.641Z,0.00
2024-01-07T05:32:59.690Z,0.00
2024-01-07T05:33:59.697Z,0.00
2024-01-07T05:34:59.671Z,0.00
2024-01-07T05:35:59.600Z,0.00
2024-01-07T05:36:59.596Z,0.00
2024-01-07T05:37:59.555Z,0.00
2024-01-07T05:38:59.524Z,0.00
2024-01-07T05:39:59.553Z,0.00
2024-01-07T05:40:59.490Z,0.00
2024-01-07T05:41:59.525Z,0.00
2024-01-07T05:42:59.482Z,0.00
2024-01-07T05:43:59.452Z,0.00
2024-01-07T05:44:59.446Z,0.00
2024-01-07T05:45:59.499Z,0.00
2024-01-07T05:46:59.405Z,0.00
2024-01-07T05:47:59.424Z,0.00
2024-01-07T05:48:59.462Z,0.00
2024-01-07T05:49:59.437Z,0.00
2024-01-07T05:50:59.347Z,0.00
2024-01-07T05:51:59.406Z,0.00
2024-01-07T05:52:59.321Z,0.00
2024-01-07T05:53:59.326Z,0.00
2024-01-07T05:54:59.340Z,0.00
2024-01-07T05:55:59.306Z,0.00
2024-01-07T05:56:59.289Z,0.00
2024-01-07T05:57:59.306Z,0.00
2024-01-07T05:58:59.257Z,0.00
2024-01-07T05:59:59.242Z,0.00
2024-01-07T06:00:59.258Z,0.00
2024-01-07T06:01:59.295Z,0.00
2024-01-07T06:02:59.235Z,0.00
2024-01-07T06:03:59.339Z,0.00
2024-01-07T06:04:59.248Z,0.00
2024-01-07T06:05:59.202Z,0.00
2024-01-07T06:06:59.192Z,0.00
2024-01-07T06:07:59.277Z,0.00
2024-01-07T06:08:59.110Z,0.00
2024-01-07T06:09:59.169Z,0.00
2024-01-07T06:10:59.155Z,0.00
2024-01-07T06:11:59.082Z,0.00
2024-01-07T06:12:59.124Z,0.00
2024-01-07T06:13:59.047Z,0.00
2024-01-07T06:14:59.024Z,0.00
2024-01-07T06:15:59.073Z,0.00
2024-01-07T06:16:59.045Z,0.00
2024-01-07T06:17:59.065Z,0.00
2024-01-07T06:18:59.068Z,0.00
2024-01-07T06:19:59.021Z,0.00
2024-01-07T06:20:58.969Z,0.00
2024-01-07T06:21:59.020Z,0.00
2024-01-07T06:22:58.942Z,0.00
2024-01-07T06:23:58.925Z,0.00
2024-01-07T06:24:58.901Z,0.00
2024-01-07T06:25:58.887Z,0.00
2024-01-07T06:26:58.888Z,0.00
2024-01-07T06:27:58.907Z,0.00
2024-01-07T06:28:58.852Z,0.00
2024-01-07T06:29:58.879Z,0.00
2024-01-07T06:31:00.315Z,0.00
2024-01-07T06:31:58.992Z,0.00
2024-01-07T06:32:58.892Z,0.00
2024-01-07T06:33:58.965Z,0.00
2024-01-07T06:34:58.768Z,0.00
2024-01-07T06:35:58.762Z,0.00
2024-01-07T06:36:58.791Z,0.00
2024-01-07T06:37:58.726Z,0.00
2024-01-07T06:38:58.706Z,0.00
2024-01-07T06:39:58.765Z,0.00
2024-01-07T06:41:00.645Z,0.00
2024-01-07T06:41:58.674Z,0.00
2024-01-07T06:42:58.755Z,0.00
2024-01-07T06:43:58.650Z,0.00
2024-01-07T06:44:58.630Z,0.00
2024-01-07T06:45:58.679Z,0.00
2024-01-07T06:46:58.626Z,0.00
2024-01-07T06:47:58.677Z,0.00
2024-01-07T06:48:58.650Z,0.00
2024-01-07T06:49:58.606Z,0.00
2024-01-07T06:50:58.586Z,0.00
2024-01-07T06:51:58.546Z,0.00
2024-01-07T06:52:58.525Z,0.00
2024-01-07T06:53:58.512Z,0.00
2024-01-07T06:54:58.509Z,0.00
2024-01-07T06:55:58.474Z,0.00
2024-01-07T06:56:58.478Z,0.00
2024-01-07T06:57:58.482Z,0.00
2024-01-07T06:58:58.441Z,0.00
2024-01-07T06:59:58.458Z,0.00
2024-01-07T07:00:58.525Z,0.00
2024-01-07T07:01:58.500Z,0.00
2024-01-07T07:02:58.391Z,0.00
2024-01-07T07:03:58.469Z,0.00
2024-01-07T07:04:58.461Z,0.00
2024-01-07T07:05:58.432Z,0.00
2024-01-07T07:06:58.400Z,4.00
2024-01-07T07:07:58.328Z,4.00
2024-01-07T07:08:58.356Z,4.00
2024-01-07T07:09:58.331Z,4.00
2024-01-07T07:10:58.291Z,0.00
2024-01-07T07:11:58.264Z,0.00
2024-01-07T07:12:58.277Z,0.00
2024-01-07T07:13:58.278Z,0.00
2024-01-07T07:14:58.242Z,0.00
2024-01-07T07:15:58.312Z,0.00
2024-01-07T07:16:58.214Z,4.00
2024-01-07T07:17:58.268Z,4.00
2024-01-07T07:18:58.239Z,4.00
2024-01-07T07:19:58.491Z,4.00
2024-01-07T07:20:58.169Z,4.00
2024-01-07T07:21:58.187Z,0.00
2024-01-07T07:22:58.167Z,0.00
2024-01-07T07:23:58.125Z,0.00
2024-01-07T07:25:00.283Z,0.00
2024-01-07T07:25:58.102Z,4.00
2024-01-07T07:26:58.081Z,4.00
2024-01-07T07:27:58.180Z,4.00
2024-01-07T07:28:58.060Z,4.00
2024-01-07T07:29:58.037Z,4.00
2024-01-07T07:30:58.066Z,4.00
2024-01-07T07:31:58.116Z,8.00
2024-01-07T07:32:58.081Z,8.00
2024-01-07T07:33:58.061Z,8.00
2024-01-07T07:34:58.050Z,8.00
2024-01-07T07:35:57.952Z,8.00
2024-01-07T07:36:58.187Z,8.00
2024-01-07T07:37:57.989Z,12.00
2024-01-07T07:38:57.903Z,8.00
2024-01-07T07:39:57.893Z,8.00
2024-01-07T07:40:57.882Z,8.00
2024-01-07T07:41:57.872Z,8.00
2024-01-07T07:42:57.875Z,8.00
2024-01-07T07:43:57.824Z,12.00
2024-01-07T07:44:57.853Z,12.00
2024-01-07T07:45:57.844Z,12.00
2024-01-07T07:46:57.810Z,12.00
2024-01-07T07:47:57.819Z,12.00
2024-01-07T07:48:57.834Z,16.00
2024-01-07T07:49:57.893Z,16.00
2024-01-07T07:50:57.753Z,16.00
2024-01-07T07:51:57.755Z,12.00
2024-01-07T07:52:57.727Z,16.00
2024-01-07T07:53:57.703Z,16.00
2024-01-07T07:54:57.725Z,12.00
2024-01-07T07:55:57.677Z,12.00
2024-01-07T07:56:57.656Z,12.00
2024-01-07T07:57:57.714Z,16.00
2024-01-07T07:58:57.640Z,16.00
2024-01-07T07:59:59.091Z,16.00
2024-01-07T08:00:57.722Z,20.00
2024-01-07T08:01:57.693Z,20.00
2024-01-07T08:02:57.622Z,20.00
2024-01-07T08:03:57.599Z,24.00
2024-01-07T08:04:57.603Z,20.00
2024-01-07T08:05:57.592Z,24.00
2024-01-07T08:06:57.722Z,24.00
2024-01-07T08:07:57.532Z,20.00
2024-01-07T08:08:57.602Z,24.00
2024-01-07T08:09:57.520Z,28.00
2024-01-07T08:10:57.471Z,28.00
2024-01-07T08:11:57.454Z,28.00
2024-01-07T08:12:57.506Z,28.00
2024-01-07T08:13:57.440Z,32.00
2024-01-07T08:14:57.451Z,32.00
2024-01-07T08:15:57.486Z,32.00
2024-01-07T08:16:57.389Z,36.00
2024-01-07T08:17:57.421Z,32.00
2024-01-07T08:18:57.502Z,36.00
2024-01-07T08:19:57.436Z,36.00
2024-01-07T08:20:57.336Z,40.00
2024-01-07T08:21:57.344Z,44.00
2024-01-07T08:22:57.357Z,48.00
2024-01-07T08:23:57.332Z,48.00
2024-01-07T08:24:57.325Z,48.00
2024-01-07T08:25:57.258Z,56.00
2024-01-07T08:26:57.245Z,48.00
2024-01-07T08:27:57.362Z,44.00
2024-01-07T08:28:57.226Z,56.00
2024-01-07T08:29:57.222Z,56.00
2024-01-07T08:30:57.327Z,64.00
2024-01-07T08:31:57.283Z,60.00
2024-01-07T08:32:57.328Z,60.00
2024-01-07T08:33:57.203Z,60.00
2024-01-07T08:34:57.200Z,64.00
2024-01-07T08:35:57.126Z,68.00
2024-01-07T08:36:57.232Z,72.00
2024-01-07T08:37:57.108Z,68.00
2024-01-07T08:38:57.097Z,64.00
2024-01-07T08:39:57.227Z,68.00
2024-01-07T08:40:57.069Z,68.00
2024-01-07T08:41:57.065Z,68.00
2024-01-07T08:42:57.092Z,68.00
2024-01-07T08:43:57.018Z,72.00
2024-01-07T08:44:57.009Z,68.00
2024-01-07T08:45:56.995Z,72.00
2024-01-07T08:46:57.012Z,76.00
2024-01-07T08:47:57.018Z,80.00
2024-01-07T08:48:57.061Z,84.00
2024-01-07T08:49:56.978Z,88.00
2024-01-07T08:50:56.944Z,88.00
2024-01-07T08:51:56.983Z,96.00
2024-01-07T08:52:56.959Z,96.00
2024-01-07T08:53:56.897Z,100.00
2024-01-07T08:54:56.954Z,100.00
2024-01-07T08:55:56.908Z,108.00
2024-01-07T08:56:56.927Z,120.00
2024-01-07T08:57:56.907Z,144.00
2024-01-07T08:58:56.858Z,124.00
2024-01-07T08:59:56.825Z,124.00
2024-01-07T09:00:56.926Z,140.00
2024-01-07T09:01:57.032Z,148.00
2024-01-07T09:02:56.823Z,140.00
2024-01-07T09:03:56.822Z,152.00
2024-01-07T09:04:56.760Z,168.00
2024-01-07T09:05:56.852Z,164.00
2024-01-07T09:06:56.824Z,160.00
2024-01-07T09:07:56.726Z,172.00
2024-01-07T09:08:56.717Z,212.00
2024-01-07T09:09:56.734Z,224.00
2024-01-07T09:10:56.724Z,212.00
2024-01-07T09:11:56.690Z,200.00
2024-01-07T09:12:56.738Z,196.00
2024-01-07T09:13:56.638Z,236.00
2024-01-07T09:14:56.655Z,196.00
2024-01-07T09:15:56.638Z,204.00
2024-01-07T09:16:56.636Z,220.00
2024-01-07T09:17:56.661Z,212.00
2024-01-07T09:18:56.690Z,232.00
2024-01-07T09:19:56.678Z,232.00
2024-01-07T09:20:56.550Z,252.00
2024-01-07T09:21:56.568Z,256.00
2024-01-07T09:22:56.531Z,276.00
2024-01-07T09:23:56.523Z,296.00
2024-01-07T09:24:56.554Z,300.00
2024-01-07T09:25:56.494Z,320.00
2024-01-07T09:26:56.481Z,364.00
2024-01-07T09:27:56.493Z,364.00
2024-01-07T09:28:56.492Z,380.00
2024-01-07T09:29:56.429Z,372.00
2024-01-07T09:30:56.497Z,440.00
2024-01-07T09:31:56.465Z,420.00
2024-01-07T09:32:56.432Z,408.00
2024-01-07T09:33:56.410Z,416.00
2024-01-07T09:34:56.718Z,404.00
2024-01-07T09:36:02.569Z,428.00
2024-01-07T09:36:57.365Z,460.00
2024-01-07T09:37:56.371Z,472.00
2024-01-07T09:38:56.423Z,432.00
2024-01-07T09:39:56.376Z,432.00
2024-01-07T09:40:56.368Z,476.00
2024-01-07T09:41:56.265Z,492.00
2024-01-07T09:42:56.299Z,472.00
2024-01-07T09:43:56.230Z,432.00
2024-01-07T09:44:56.227Z,420.00
2024-01-07T09:45:56.220Z,424.00
2024-01-07T09:46:56.200Z,436.00
2024-01-07T09:47:56.237Z,476.00
2024-01-07T09:48:56.248Z,484.00
2024-01-07T09:49:56.184Z,524.00
2024-01-07T09:50:56.141Z,572.00
2024-01-07T09:51:56.150Z,528.00
2024-01-07T09:52:56.152Z,544.00
2024-01-07T09:53:56.105Z,508.00
2024-01-07T09:54:56.135Z,452.00
2024-01-07T09:55:56.069Z,420.00
2024-01-07T09:56:56.079Z,388.00
2024-01-07T09:57:56.106Z,372.00
2024-01-07T09:58:56.128Z,360.00
2024-01-07T09:59:56.014Z,332.00
2024-01-07T10:00:56.134Z,316.00
2024-01-07T10:01:56.786Z,308.00
2024-01-07T10:02:55.988Z,308.00
2024-01-07T10:03:56.049Z,316.00
2024-01-07T10:04:56.047Z,308.00
2024-01-07T10:05:55.988Z,320.00
2024-01-07T10:06:56.009Z,284.00
2024-01-07T10:07:55.908Z,252.00
2024-01-07T10:08:55.928Z,264.00
2024-01-07T10:09:55.932Z,260.00
2024-01-07T10:10:55.926Z,284.00
2024-01-07T10:11:55.878Z,280.00
2024-01-07T10:12:55.862Z,276.00
2024-01-07T10:13:55.837Z,280.00
2024-01-07T10:14:55.839Z,276.00
2024-01-07T10:15:55.900Z,284.00
2024-01-07T10:16:55.800Z,272.00
2024-01-07T10:17:55.861Z,284.00
2024-01-07T10:18:55.971Z,280.00
2024-01-07T10:19:55.903Z,292.00
2024-01-07T10:20:55.761Z,284.00
2024-01-07T10:21:55.751Z,292.00
2024-01-07T10:22:55.716Z,272.00
2024-01-07T10:23:55.704Z,260.00
2024-01-07T10:24:55.768Z,276.00
2024-01-07T10:25:55.674Z,316.00
2024-01-07T10:26:55.665Z,364.00
2024-01-07T10:27:55.654Z,420.00
2024-01-07T10:28:55.696Z,428.00
2024-01-07T10:29:55.634Z,464.00
2024-01-07T10:30:55.709Z,524.00
2024-01-07T10:31:55.729Z,548.00
2024-01-07T10:32:55.593Z,520.00
2024-01-07T10:33:55.694Z,504.00
2024-01-07T10:34:55.825Z,476.00
2024-01-07T10:35:55.539Z,476.00
2024-01-07T10:36:55.583Z,508.00
2024-01-07T10:37:55.522Z,636.00
2024-01-07T10:38:55.513Z,644.00
2024-01-07T10:39:55.543Z,728.00
2024-01-07T10:40:55.469Z,656.00
2024-01-07T10:41:55.464Z,576.00
2024-01-07T10:42:55.460Z,504.00
2024-01-07T10:43:55.504Z,468.00
2024-01-07T10:44:55.417Z,468.00
2024-01-07T10:45:55.434Z,472.00
2024-01-07T10:46:55.416Z,488.00
2024-01-07T10:47:55.461Z,464.00
2024-01-07T10:48:55.458Z,420.00
2024-01-07T10:49:56.884Z,360.00
2024-01-07T10:50:55.336Z,312.00
2024-01-07T10:51:55.347Z,312.00
2024-01-07T10:52:55.338Z,304.00
2024-01-07T10:53:55.320Z,300.00
2024-01-07T10:54:55.343Z,304.00
2024-01-07T10:55:57.652Z,324.00
2024-01-07T10:56:55.276Z,368.00
2024-01-07T10:57:55.309Z,460.00
2024-01-07T10:58:55.239Z,380.00
2024-01-07T10:59:55.265Z,364.00
2024-01-07T11:00:55.267Z,400.00
2024-01-07T11:01:57.432Z,404.00
2024-01-07T11:02:55.195Z,396.00
2024-01-07T11:03:55.268Z,392.00
2024-01-07T11:04:55.214Z,388.00
2024-01-07T11:05:55.258Z,396.00
2024-01-07T11:06:55.176Z,400.00
2024-01-07T11:07:55.125Z,416.00
2024-01-07T11:08:55.101Z,436.00
2024-01-07T11:09:55.187Z,440.00
2024-01-07T11:10:55.133Z,436.00
2024-01-07T11:11:55.110Z,408.00
2024-01-07T11:12:55.112Z,396.00
2024-01-07T11:13:57.930Z,392.00
2024-01-07T11:14:55.018Z,424.00
2024-01-07T11:15:55.084Z,520.00
2024-01-07T11:16:55.004Z,616.00
2024-01-07T11:17:55.029Z,636.00
2024-01-07T11:18:55.032Z,504.00
2024-01-07T11:19:57.261Z,420.00
2024-01-07T11:20:54.951Z,368.00
2024-01-07T11:21:54.948Z,356.00
2024-01-07T11:22:54.904Z,332.00
2024-01-07T11:23:54.907Z,328.00
2024-01-07T11:24:54.921Z,312.00
2024-01-07T11:25:54.908Z,344.00
2024-01-07T11:26:54.858Z,380.00
2024-01-07T11:27:54.905Z,392.00
2024-01-07T11:28:54.830Z,360.00
2024-01-07T11:29:54.836Z,376.00
2024-01-07T11:30:54.891Z,376.00
2024-01-07T11:31:54.991Z,320.00
2024-01-07T11:32:54.806Z,288.00
2024-01-07T11:33:54.876Z,268.00
2024-01-07T11:34:55.101Z,268.00
2024-01-07T11:35:54.761Z,260.00
2024-01-07T11:36:54.778Z,256.00
2024-01-07T11:37:54.714Z,236.00
2024-01-07T11:38:55.250Z,208.00
2024-01-07T11:39:54.722Z,200.00
2024-01-07T11:40:54.669Z,208.00
2024-01-07T11:41:54.662Z,228.00
2024-01-07T11:42:54.774Z,240.00
2024-01-07T11:43:54.656Z,272.00
2024-01-07T11:44:54.627Z,304.00
2024-01-07T11:45:54.664Z,328.00
2024-01-07T11:46:54.591Z,372.00
2024-01-07T11:47:54.635Z,364.00
2024-01-07T11:48:54.686Z,348.00
2024-01-07T11:49:54.657Z,348.00
2024-01-07T11:50:56.411Z,364.00
2024-01-07T11:51:54.551Z,388.00
2024-01-07T11:52:54.517Z,408.00
2024-01-07T11:53:54.630Z,372.00
2024-01-07T11:54:54.552Z,364.00
2024-01-07T11:55:54.510Z,344.00
2024-01-07T11:56:54.456Z,352.00
2024-01-07T11:57:54.536Z,372.00
2024-01-07T11:58:54.476Z,388.00
2024-01-07T11:59:54.450Z,396.00
2024-01-07T12:00:54.498Z,408.00
2024-01-07T12:01:54.540Z,408.00
2024-01-07T12:02:54.380Z,396.00
2024-01-07T12:03:54.464Z,400.00
2024-01-07T12:04:54.369Z,412.00
2024-01-07T12:05:54.368Z,436.00
2024-01-07T12:06:54.348Z,444.00
2024-01-07T12:07:54.346Z,428.00
2024-01-07T12:08:54.327Z,404.00
2024-01-07T12:09:54.314Z,400.00
2024-01-07T12:10:54.283Z,392.00
2024-01-07T12:11:54.263Z,388.00
2024-01-07T12:12:54.374Z,388.00
2024-01-07T12:13:54.254Z,384.00
2024-01-07T12:14:54.223Z,380.00
2024-01-07T12:15:54.257Z,384.00
2024-01-07T12:16:54.205Z,388.00
2024-01-07T12:17:54.277Z,396.00
2024-01-07T12:18:54.259Z,408.00
2024-01-07T12:19:54.205Z,420.00
2024-01-07T12:20:54.144Z,440.00
2024-01-07T12:21:54.187Z,444.00
2024-01-07T12:22:54.145Z,448.00
2024-01-07T12:23:54.138Z,456.00
2024-01-07T12:24:54.128Z,440.00
2024-01-07T12:25:54.119Z,424.00
2024-01-07T12:26:54.089Z,428.00
2024-01-07T12:27:54.197Z,428.00
2024-01-07T12:28:54.062Z,432.00
2024-01-07T12:29:54.035Z,444.00
2024-01-07T12:30:54.102Z,468.00
2024-01-07T12:31:54.217Z,444.00
2024-01-07T12:32:54.066Z,440.00
2024-01-07T12:33:54.184Z,428.00
2024-01-07T12:34:54.033Z,420.00
2024-01-07T12:35:53.995Z,408.00
2024-01-07T12:36:54.046Z,404.00
2024-01-07T12:37:53.941Z,416.00
2024-01-07T12:38:53.934Z,416.00
2024-01-07T12:39:53.926Z,420.00
2024-01-07T12:40:53.942Z,416.00
2024-01-07T12:41:53.895Z,412.00
2024-01-07T12:42:53.960Z,432.00
2024-01-07T12:43:53.859Z,436.00
2024-01-07T12:44:53.857Z,436.00
2024-01-07T12:45:53.882Z,432.00
2024-01-07T12:46:53.803Z,428.00
2024-01-07T12:47:53.932Z,424.00
2024-01-07T12:48:53.892Z,424.00
2024-01-07T12:49:53.823Z,432.00
2024-01-07T12:50:53.770Z,456.00
2024-01-07T12:51:53.794Z,472.00
2024-01-07T12:52:53.742Z,520.00
2024-01-07T12:53:53.724Z,568.00
2024-01-07T12:54:53.746Z,572.00
2024-01-07T12:55:53.704Z,552.00
2024-01-07T12:56:53.700Z,540.00
2024-01-07T12:57:53.692Z,540.00
2024-01-07T12:58:53.710Z,556.00